createdAt,value
2022-09-05T00:02:03.545Z,101038.63
2022-09-05T00:04:42.643Z,101034.66
2022-09-05T00:07:57.865Z,101037.03
2022-09-05T00:10:18.765Z,101034.59
2022-09-05T00:12:48.443Z,101043.44
2022-09-05T00:15:29.135Z,101051.09
2022-09-05T00:22:21.693Z,101068.34
2022-09-05T00:24:19.421Z,101060.97
2022-09-05T00:24:45.687Z,101049.69
2022-09-05T00:27:13.709Z,101055.25
2022-09-05T00:30:40.636Z,101052.38
2022-09-05T00:32:40.167Z,101045.03
2022-09-05T00:35:14.932Z,101039.84
2022-09-05T00:37:45.640Z,101033.03
2022-09-05T00:40:39.878Z,101031.06
2022-09-05T00:43:22.445Z,101032.31
2022-09-05T00:46:00.698Z,101050.47
2022-09-05T00:48:49.850Z,101057.13
2022-09-05T00:51:28.575Z,101070.84
2022-09-05T00:54:32.649Z,101064.47
2022-09-05T00:57:36.554Z,101069.22
2022-09-05T01:00:18.130Z,101047.56
2022-09-05T01:02:51.610Z,101036.34
2022-09-05T01:05:31.953Z,101030.28
2022-09-05T01:08:20.530Z,101024.59
2022-09-05T01:10:54.800Z,101017.75
2022-09-05T01:13:46.916Z,101024.25
2022-09-05T01:17:08.334Z,101025.94
2022-09-05T01:20:18.885Z,101046.81
2022-09-05T01:23:23.586Z,101095.38
2022-09-05T01:26:10.184Z,101110.00
2022-09-05T01:29:15.344Z,101077.94
2022-09-05T01:32:05.536Z,101040.41
2022-09-05T01:34:55.860Z,101012.22
2022-09-05T01:37:34.305Z,101006.88
2022-09-05T01:40:17.508Z,101012.38
2022-09-05T01:43:28.079Z,101001.25
2022-09-05T01:46:27.032Z,101002.97
2022-09-05T01:48:55.017Z,100994.19
2022-09-05T01:51:34.502Z,100996.56
2022-09-05T01:54:24.246Z,100993.59
2022-09-05T01:57:23.833Z,100992.94
2022-09-05T02:00:24.160Z,101016.28
2022-09-05T02:02:51.373Z,101017.66
2022-09-05T02:05:48.921Z,101027.28
2022-09-05T02:08:40.290Z,101021.88
2022-09-05T02:11:11.634Z,101024.78
2022-09-05T02:13:54.172Z,101024.84
2022-09-05T02:16:44.433Z,101029.13
2022-09-05T02:19:14.994Z,101027.25
2022-09-05T02:22:02.660Z,101020.06
2022-09-05T02:24:32.673Z,101015.31
2022-09-05T02:27:03.863Z,101021.06
2022-09-05T02:29:36.702Z,101021.44
2022-09-05T02:32:13.982Z,101025.88
2022-09-05T02:34:55.165Z,101021.22
2022-09-05T02:38:30.161Z,101024.13
2022-09-05T02:45:00.804Z,101022.00
2022-09-05T02:45:23.977Z,101025.34
2022-09-05T02:46:28.603Z,101023.34
2022-09-05T02:53:13.849Z,101035.78
2022-09-05T02:57:30.218Z,101053.94
2022-09-05T02:57:36.694Z,101059.56
2022-09-05T02:58:04.494Z,101053.25
2022-09-05T03:00:44.329Z,101052.72
2022-09-05T03:03:39.284Z,101055.78
2022-09-05T03:06:28.867Z,101054.50
2022-09-05T03:09:30.055Z,101070.41
2022-09-05T03:12:28.533Z,101073.25
2022-09-05T03:15:18.571Z,101075.22
2022-09-05T03:18:20.568Z,101080.81
2022-09-05T03:21:47.865Z,101086.44
2022-09-05T03:24:27.184Z,101096.59
2022-09-05T03:27:12.561Z,101093.75
2022-09-05T03:29:50.016Z,101089.59
2022-09-05T03:33:03.849Z,101094.94
2022-09-05T03:35:33.777Z,101089.06
2022-09-05T03:38:28.840Z,101096.09
2022-09-05T03:41:05.690Z,101101.91
2022-09-05T03:43:51.141Z,101095.53
2022-09-05T03:46:53.565Z,101086.81
2022-09-05T03:51:24.367Z,101085.53
2022-09-05T03:57:05.529Z,101085.25
2022-09-05T03:57:28.162Z,101072.47
2022-09-05T03:58:55.830Z,101084.06
2022-09-05T04:04:37.939Z,101091.81
2022-09-05T04:08:15.463Z,101092.31
2022-09-05T04:08:19.348Z,101080.84
2022-09-05T04:10:42.663Z,101095.50
2022-09-05T04:13:24.948Z,101093.81
2022-09-05T04:16:03.622Z,101092.53
2022-09-05T04:18:38.669Z,101096.47
2022-09-05T04:21:20.216Z,101092.69
2022-09-05T04:24:05.788Z,101083.94
2022-09-05T04:27:06.216Z,101077.69
2022-09-05T04:29:39.516Z,101081.56
2022-09-05T04:32:18.756Z,101085.94
2022-09-05T04:35:10.221Z,101081.13
2022-09-05T04:37:48.739Z,101082.19
2022-09-05T04:40:46.927Z,101092.28
2022-09-05T04:43:32.599Z,101103.44
2022-09-05T04:46:19.182Z,101112.06
2022-09-05T04:48:51.368Z,101116.09
2022-09-05T04:52:14.820Z,101128.59
2022-09-05T04:55:01.678Z,101130.03
2022-09-05T04:57:48.099Z,101118.34
2022-09-05T05:06:01.511Z,101120.41
2022-09-05T05:06:13.319Z,101114.13
2022-09-05T05:06:31.526Z,101115.81
2022-09-05T05:08:46.281Z,101113.91
2022-09-05T05:16:59.369Z,101114.81
2022-09-05T05:18:09.262Z,101109.97
2022-09-05T05:18:10.384Z,101117.34
2022-09-05T05:20:56.984Z,101109.34
2022-09-05T05:23:32.505Z,101108.03
2022-09-05T05:26:02.804Z,101115.00
2022-09-05T05:28:57.678Z,101111.03
2022-09-05T05:31:29.582Z,101115.41
2022-09-05T05:34:02.331Z,101114.13
2022-09-05T05:36:35.057Z,101122.25
2022-09-05T05:39:27.485Z,101117.31
2022-09-05T05:41:56.257Z,101116.00
2022-09-05T05:44:27.421Z,101127.75
2022-09-05T05:47:31.467Z,101130.13
2022-09-05T05:50:02.709Z,101130.63
2022-09-05T05:52:58.044Z,101138.25
2022-09-05T05:55:52.819Z,101139.38
2022-09-05T05:58:52.534Z,101140.16
2022-09-05T06:01:41.725Z,101147.00
2022-09-05T06:04:27.850Z,101139.44
2022-09-05T06:07:09.965Z,101143.44
2022-09-05T06:14:50.671Z,101162.13
2022-09-05T06:14:52.494Z,101157.69
2022-09-05T06:17:03.226Z,101175.69
2022-09-05T06:20:15.016Z,101189.91
2022-09-05T06:22:52.263Z,101193.59
2022-09-05T06:25:44.636Z,101183.75
2022-09-05T06:28:18.361Z,101191.41
2022-09-05T06:31:35.237Z,101192.78
2022-09-05T06:34:32.967Z,101202.13
2022-09-05T06:37:16.738Z,101200.22
2022-09-05T06:40:00.286Z,101215.50
2022-09-05T06:42:44.159Z,101215.31
2022-09-05T06:45:36.103Z,101223.63
2022-09-05T06:48:11.053Z,101229.72
2022-09-05T06:51:08.277Z,101241.59
2022-09-05T06:54:03.556Z,101248.38
2022-09-05T06:56:39.835Z,101259.88
2022-09-05T06:59:49.143Z,101261.25
2022-09-05T07:02:46.371Z,101249.06
2022-09-05T07:05:36.842Z,101249.66
2022-09-05T07:08:35.900Z,101257.81
2022-09-05T07:11:16.173Z,101255.53
2022-09-05T07:13:57.866Z,101243.53
2022-09-05T07:16:52.036Z,101260.53
2022-09-05T07:19:28.621Z,101266.50
2022-09-05T07:22:51.717Z,101251.72
2022-09-05T07:25:22.711Z,101246.56
2022-09-05T07:28:26.369Z,101244.94
2022-09-05T07:31:37.690Z,101254.22
2022-09-05T07:34:21.146Z,101251.88
2022-09-05T07:37:15.015Z,101252.34
2022-09-05T07:39:50.011Z,101248.78
2022-09-05T07:42:22.993Z,101257.22
2022-09-05T07:44:56.493Z,101249.50
2022-09-05T07:47:33.447Z,101235.13
2022-09-05T07:52:24.936Z,101229.09
2022-09-05T07:57:01.153Z,101226.19
2022-09-05T07:57:01.328Z,101233.56
2022-09-05T07:58:41.435Z,101217.91
2022-09-05T08:01:12.669Z,101214.22
2022-09-05T08:03:42.330Z,101215.84
2022-09-05T08:07:24.260Z,101211.47
2022-09-05T08:10:02.272Z,101210.72
2022-09-05T08:12:11.354Z,101202.34
2022-09-05T08:14:46.379Z,101197.22
2022-09-05T08:17:18.935Z,101202.88
2022-09-05T08:20:23.540Z,101203.75
2022-09-05T08:23:04.556Z,101203.22
2022-09-05T08:25:36.250Z,101208.50
2022-09-05T08:28:38.876Z,101208.09
2022-09-05T08:31:14.747Z,101207.78
2022-09-05T08:33:43.466Z,101207.81
2022-09-05T08:36:13.850Z,101208.66
2022-09-05T08:38:43.314Z,101203.47
2022-09-05T08:41:49.198Z,101204.72
2022-09-05T08:46:40.242Z,101205.09
2022-09-05T08:47:25.631Z,101205.09
2022-09-05T08:50:29.967Z,101212.75
2022-09-05T08:53:38.233Z,101221.19
2022-09-05T08:56:17.062Z,101239.75
2022-09-05T08:59:32.242Z,101270.38
2022-09-05T09:02:47.820Z,101252.25
2022-09-05T09:06:11.931Z,101240.16
2022-09-05T09:09:08.743Z,101246.56
2022-09-05T09:11:47.667Z,101242.19
2022-09-05T09:14:33.850Z,101250.97
2022-09-05T09:17:28.768Z,101248.97
2022-09-05T09:20:31.398Z,101250.63
2022-09-05T09:23:08.979Z,101253.84
2022-09-05T09:26:11.320Z,101257.09
2022-09-05T09:28:51.404Z,101242.94
2022-09-05T09:31:23.259Z,101239.34
2022-09-05T09:34:03.832Z,101233.72
2022-09-05T09:36:49.477Z,101236.94
2022-09-05T09:39:38.820Z,101231.28
2022-09-05T09:42:33.533Z,101229.03
2022-09-05T09:45:22.714Z,101222.72
2022-09-05T09:48:24.128Z,101220.00
2022-09-05T09:51:29.232Z,101210.34
2022-09-05T09:54:27.332Z,101210.28
2022-09-05T09:57:19.216Z,101202.47
2022-09-05T10:00:07.634Z,101194.09
2022-09-05T10:04:48.065Z,101191.19
2022-09-05T10:10:44.653Z,101191.78
2022-09-05T10:11:18.882Z,101184.97
2022-09-05T10:12:14.269Z,101180.50
2022-09-05T10:15:03.771Z,101165.59
2022-09-05T10:18:26.507Z,101164.81
2022-09-05T10:21:16.970Z,101166.75
2022-09-05T10:24:25.947Z,101172.69
2022-09-05T10:27:02.240Z,101169.94
2022-09-05T10:30:09.135Z,101159.66
2022-09-05T10:35:15.252Z,101168.91
2022-09-05T10:35:37.617Z,101164.38
2022-09-05T10:38:14.907Z,101165.59
2022-09-05T10:41:20.038Z,101161.66
2022-09-05T10:44:02.415Z,101148.88
2022-09-05T10:46:50.642Z,101150.34
2022-09-05T10:49:24.526Z,101148.72
2022-09-05T10:52:18.646Z,101151.03
2022-09-05T10:55:02.596Z,101151.66
2022-09-05T10:58:22.107Z,101142.78
2022-09-05T11:02:20.930Z,101140.16
2022-09-05T11:04:49.596Z,101139.81
2022-09-05T11:07:39.955Z,101143.69
2022-09-05T11:10:14.173Z,101130.06
2022-09-05T11:12:57.723Z,101131.19
2022-09-05T11:16:06.774Z,101130.31
2022-09-05T11:18:57.183Z,101138.97
2022-09-05T11:21:38.139Z,101135.50
2022-09-05T11:24:12.115Z,101126.72
2022-09-05T11:27:23.435Z,101124.22
2022-09-05T11:29:49.025Z,101118.94
2022-09-05T11:39:20.610Z,101117.22
2022-09-05T11:39:59.253Z,101115.16
2022-09-05T11:40:10.360Z,101113.41
2022-09-05T11:41:42.799Z,101108.94
2022-09-05T11:44:56.781Z,101104.41
2022-09-05T11:47:58.006Z,101108.97
2022-09-05T11:50:49.850Z,101099.06
2022-09-05T11:53:35.310Z,101098.09
2022-09-05T11:56:23.524Z,101088.84
2022-09-05T11:59:13.758Z,101087.06
2022-09-05T12:01:50.693Z,101078.56
2022-09-05T12:04:37.727Z,101078.56
2022-09-05T12:07:15.551Z,101076.84
2022-09-05T12:10:45.704Z,101071.78
2022-09-05T12:13:29.365Z,101060.84
2022-09-05T12:16:07.567Z,101066.72
2022-09-05T12:18:43.107Z,101062.88
2022-09-05T12:21:25.078Z,101061.66
2022-09-05T12:25:15.182Z,101060.44
2022-09-05T12:27:42.378Z,101050.44
2022-09-05T12:30:04.784Z,101039.72
2022-09-05T12:36:04.904Z,101032.72
2022-09-05T12:36:13.213Z,101015.59
2022-09-05T12:40:38.529Z,101015.25
2022-09-05T12:41:46.221Z,101009.72
2022-09-05T12:44:42.501Z,101001.41
2022-09-05T12:47:19.574Z,100986.31
2022-09-05T12:50:14.371Z,100986.34
2022-09-05T12:52:44.940Z,100988.66
2022-09-05T12:55:22.511Z,100980.81
2022-09-05T13:02:11.288Z,100973.56
2022-09-05T13:03:04.487Z,100979.41
2022-09-05T13:03:53.549Z,100971.38
2022-09-05T13:06:30.937Z,100959.75
2022-09-05T13:09:30.821Z,100960.75
2022-09-05T13:14:47.398Z,100963.94
2022-09-05T13:15:23.178Z,100950.59
2022-09-05T13:17:59.310Z,100964.47
2022-09-05T13:20:36.613Z,100965.84
2022-09-05T13:23:23.094Z,100971.16
2022-09-05T13:25:58.629Z,100986.56
2022-09-05T13:28:35.317Z,100993.06
2022-09-05T13:37:53.838Z,101004.38
2022-09-05T13:37:56.534Z,101019.28
2022-09-05T13:37:59.372Z,101012.16
2022-09-05T13:40:00.205Z,101017.06
2022-09-05T13:42:31.413Z,101009.66
2022-09-05T13:45:00.947Z,101005.78
2022-09-05T13:47:29.733Z,100998.72
2022-09-05T13:50:23.170Z,100983.44
2022-09-05T13:52:53.484Z,100949.31
2022-09-05T13:55:42.215Z,100890.88
2022-09-05T13:58:24.961Z,100895.94
2022-09-05T14:01:30.241Z,100909.16
2022-09-05T14:10:12.584Z,100912.06
2022-09-05T14:12:49.253Z,100904.13
2022-09-05T14:15:37.445Z,100908.44
2022-09-05T14:18:24.072Z,100893.59
2022-09-05T14:21:17.329Z,100889.44
2022-09-05T14:23:57.457Z,100886.88
2022-09-05T14:26:34.567Z,100891.75
2022-09-05T14:29:14.501Z,100892.84
2022-09-05T14:37:40.126Z,100883.91
2022-09-05T14:37:41.425Z,100878.44
2022-09-05T14:38:48.972Z,100871.16
2022-09-05T14:41:36.941Z,100861.34
2022-09-05T14:44:27.578Z,100851.25
2022-09-05T14:47:06.374Z,100854.91
2022-09-05T14:49:41.695Z,100849.34
2022-09-05T14:52:26.428Z,100852.81
2022-09-05T15:02:48.691Z,100840.41
2022-09-05T15:02:51.033Z,100828.09
2022-09-05T15:06:32.935Z,100804.38
2022-09-05T15:11:25.827Z,100797.44
2022-09-05T15:12:23.055Z,100799.56
2022-09-05T15:14:38.423Z,100789.84
2022-09-05T15:17:05.956Z,100789.28
2022-09-05T15:20:06.237Z,100786.72
2022-09-05T15:22:42.102Z,100783.88
2022-09-05T15:25:22.686Z,100779.47
2022-09-05T15:27:50.664Z,100768.78
2022-09-05T15:30:34.978Z,100766.06
2022-09-05T15:33:31.455Z,100764.38
2022-09-05T15:35:59.923Z,100759.34
2022-09-05T15:38:54.378Z,100762.75
2022-09-05T15:41:24.625Z,100750.75
2022-09-05T15:43:59.689Z,100752.16
2022-09-05T15:47:03.515Z,100762.47
2022-09-05T15:49:40.878Z,100772.75
2022-09-05T15:52:29.445Z,100764.84
2022-09-05T15:55:10.666Z,100763.34
2022-09-05T15:57:38.680Z,100760.88
2022-09-05T16:00:09.859Z,100757.75
2022-09-05T16:02:40.092Z,100755.19
2022-09-05T16:10:35.756Z,100740.34
2022-09-05T16:10:35.845Z,100753.47
2022-09-05T16:14:39.360Z,100730.69
2022-09-05T16:23:16.179Z,100743.06
2022-09-05T16:23:32.898Z,100759.19
2022-09-05T16:23:46.149Z,100765.34
2022-09-05T16:26:25.280Z,100755.41
2022-09-05T16:29:11.540Z,100765.13
2022-09-05T16:31:45.797Z,100767.81
2022-09-05T16:34:49.811Z,100771.72
2022-09-05T16:37:34.981Z,100758.94
2022-09-05T16:40:32.177Z,100764.44
2022-09-05T16:43:15.670Z,100773.25
2022-09-05T16:46:22.931Z,100769.31
2022-09-05T16:48:55.017Z,100782.63
2022-09-05T16:51:35.608Z,100770.25
2022-09-05T16:54:12.383Z,100773.06
2022-09-05T16:56:43.602Z,100769.59
2022-09-05T16:59:23.120Z,100752.78
2022-09-05T17:02:07.202Z,100726.41
2022-09-05T17:05:03.092Z,100723.34
2022-09-05T17:07:42.091Z,100728.00
2022-09-05T17:10:12.116Z,100743.03
2022-09-05T17:12:40.542Z,100760.84
2022-09-05T17:15:17.110Z,100767.53
2022-09-05T17:18:22.316Z,100757.41
2022-09-05T17:20:36.883Z,100745.34
2022-09-05T17:29:19.571Z,100746.09
2022-09-05T17:29:26.020Z,100760.81
2022-09-05T17:29:41.139Z,100786.47
2022-09-05T17:32:02.230Z,100807.28
2022-09-05T17:34:47.392Z,100791.59
2022-09-05T17:37:43.491Z,100778.28
2022-09-05T17:40:44.754Z,100884.41
2022-09-05T17:43:28.682Z,100991.31
2022-09-05T17:46:12.595Z,100980.59
2022-09-05T17:48:46.290Z,101011.28
2022-09-05T17:51:26.290Z,100913.31
2022-09-05T17:53:59.759Z,100915.25
2022-09-05T17:56:31.918Z,100908.88
2022-09-05T17:59:23.601Z,100916.09
2022-09-05T18:02:03.391Z,100909.34
2022-09-05T18:04:39.935Z,100900.06
2022-09-05T18:07:25.578Z,100901.31
2022-09-05T18:10:15.377Z,100896.44
2022-09-05T18:13:12.723Z,100889.16
2022-09-05T18:15:43.963Z,100880.28
2022-09-05T18:19:28.118Z,100882.94
2022-09-05T18:21:22.512Z,100889.69
2022-09-05T18:23:58.538Z,100889.88
2022-09-05T18:26:27.948Z,100892.34
2022-09-05T18:28:59.209Z,100896.03
2022-09-05T18:31:40.691Z,100888.31
2022-09-05T18:34:15.592Z,100882.84
2022-09-05T18:36:48.661Z,100885.75
2022-09-05T18:39:29.370Z,100886.06
2022-09-05T18:42:33.872Z,100892.22
2022-09-05T18:45:14.777Z,100905.41
2022-09-05T18:47:50.999Z,100900.56
2022-09-05T18:50:32.389Z,100901.66
2022-09-05T18:53:09.431Z,100886.16
2022-09-05T18:56:20.547Z,100881.16
2022-09-05T18:58:53.657Z,100881.91
2022-09-05T19:01:30.620Z,100874.84
2022-09-05T19:04:00.972Z,100883.31
2022-09-05T19:06:37.264Z,100883.44
2022-09-05T19:09:08.575Z,100881.75
2022-09-05T19:11:53.771Z,100870.88
2022-09-05T19:14:36.285Z,100874.13
2022-09-05T19:17:20.666Z,100881.28
2022-09-05T19:20:32.028Z,100885.31
2022-09-05T19:23:10.647Z,100883.16
2022-09-05T19:25:42.890Z,100890.81
2022-09-05T19:35:53.037Z,100901.41
2022-09-05T19:37:11.018Z,100911.22
2022-09-05T19:37:12.358Z,100905.97
2022-09-05T19:37:38.267Z,100915.94
2022-09-05T19:44:39.004Z,100913.84
2022-09-05T19:47:25.972Z,100912.47
2022-09-05T19:47:35.381Z,100918.56
2022-09-05T19:48:27.010Z,100913.44
2022-09-05T19:50:56.236Z,100913.94
2022-09-05T19:53:24.155Z,100905.53
2022-09-05T19:55:52.402Z,100906.72
2022-09-05T19:58:21.558Z,100909.56
2022-09-05T20:01:02.166Z,100904.78
2022-09-05T20:03:38.710Z,100910.44
2022-09-05T20:06:29.298Z,100920.81
2022-09-05T20:09:21.889Z,100919.13
2022-09-05T20:12:00.657Z,100918.34
2022-09-05T20:14:34.402Z,100918.38
2022-09-05T20:17:20.893Z,100920.75
2022-09-05T20:19:48.335Z,100921.19
2022-09-05T20:22:48.857Z,100912.28
2022-09-05T20:25:40.707Z,100907.13
2022-09-05T20:28:17.270Z,100909.59
2022-09-05T20:30:48.246Z,100906.69
2022-09-05T20:33:23.243Z,100911.25
2022-09-05T20:37:51.629Z,100910.34
2022-09-05T20:43:16.873Z,100908.78
2022-09-05T20:43:32.087Z,100896.28
2022-09-05T20:44:48.342Z,100899.88
2022-09-05T20:51:42.689Z,100908.75
2022-09-05T20:54:06.711Z,100904.69
2022-09-05T20:54:27.791Z,100897.06
2022-09-05T20:56:02.449Z,100893.00
2022-09-05T20:58:31.892Z,100894.91
2022-09-05T21:01:20.222Z,100893.75
2022-09-05T21:04:01.607Z,100898.22
2022-09-05T21:06:36.755Z,100889.38
2022-09-05T21:09:11.357Z,100881.78
2022-09-05T21:11:40.151Z,100904.19
2022-09-05T21:14:07.744Z,100886.97
2022-09-05T21:16:43.120Z,100885.00
2022-09-05T21:19:25.335Z,100881.34
2022-09-05T21:22:28.514Z,100883.66
2022-09-05T21:25:44.241Z,100884.53
2022-09-05T21:28:36.450Z,100880.22
2022-09-05T21:31:08.836Z,100878.13
2022-09-05T21:33:45.977Z,100867.69
2022-09-05T21:36:17.006Z,100870.50
2022-09-05T21:38:44.489Z,100866.88
2022-09-05T21:41:15.853Z,100867.59
2022-09-05T21:47:37.648Z,100867.63
2022-09-05T21:47:47.094Z,100879.34
2022-09-05T21:49:22.709Z,100873.69
2022-09-05T21:51:50.471Z,100879.34
2022-09-05T21:58:50.931Z,100882.56
2022-09-05T21:59:26.443Z,100871.28
2022-09-05T22:00:13.125Z,100877.25
2022-09-05T22:02:49.057Z,100872.81
2022-09-05T22:05:17.111Z,100879.25
2022-09-05T22:07:48.577Z,100871.63
2022-09-05T22:10:15.987Z,100877.75
2022-09-05T22:12:43.744Z,100881.31
2022-09-05T22:15:28.173Z,100880.53
2022-09-05T22:18:16.404Z,100870.47
2022-09-05T22:20:53.467Z,100885.75
2022-09-05T22:23:36.038Z,100877.66
2022-09-05T22:26:06.623Z,100890.06
2022-09-05T22:28:34.624Z,100885.59
2022-09-05T22:31:07.471Z,100884.09
2022-09-05T22:33:36.138Z,100881.53
2022-09-05T22:36:04.409Z,100876.13
2022-09-05T22:38:32.666Z,100882.63
2022-09-05T22:41:00.132Z,100884.56
2022-09-05T22:43:27.510Z,100892.19
2022-09-05T22:45:55.965Z,100894.69
2022-09-05T22:48:23.943Z,100893.03
2022-09-05T22:50:51.737Z,100898.38
2022-09-05T22:53:19.016Z,100892.94
2022-09-05T22:55:46.261Z,100894.63
2022-09-05T22:58:14.743Z,100890.50
2022-09-05T23:00:44.424Z,100895.19
2022-09-05T23:03:12.193Z,100896.91
2022-09-05T23:05:39.449Z,100879.69
2022-09-05T23:08:06.932Z,100882.66
2022-09-05T23:10:35.393Z,100888.19
2022-09-05T23:13:04.749Z,100894.16
2022-09-05T23:15:32.092Z,100888.94
2022-09-05T23:18:00.596Z,100900.97
2022-09-05T23:20:30.014Z,100889.28
2022-09-05T23:22:57.979Z,100898.56
2022-09-05T23:25:25.257Z,100904.16
2022-09-05T23:27:52.686Z,100903.75
2022-09-05T23:30:19.957Z,100909.84
2022-09-05T23:32:49.034Z,100900.56
2022-09-05T23:35:17.038Z,100903.50
2022-09-05T23:37:45.462Z,100902.72
2022-09-05T23:40:14.474Z,100907.66
2022-09-05T23:42:42.173Z,100900.91
2022-09-05T23:45:09.874Z,100903.66
2022-09-05T23:47:37.592Z,100904.75
2022-09-05T23:50:05.638Z,100906.53
2022-09-05T23:52:38.717Z,100903.88
2022-09-05T23:55:07.031Z,100906.75
2022-09-05T23:57:34.280Z,100910.41
